sensor_id;sensor_type;location;lat;lon;timestamp;P1;durP1;ratioP1;P2;durP2;ratioP2
16326;SDS011;34812;49.846;9.610;2023-12-22T00:02:23;1.77;;;1.30;;
16326;SDS011;34812;49.846;9.610;2023-12-22T00:07:27;6.07;;;1.97;;
16326;SDS011;34812;49.846;9.610;2023-12-22T00:12:29;1.10;;;1.00;;
16326;SDS011;34812;49.846;9.610;2023-12-22T00:17:31;1.23;;;1.23;;
16326;SDS011;34812;49.846;9.610;2023-12-22T00:22:35;1.43;;;1.43;;
16326;SDS011;34812;49.846;9.610;2023-12-22T00:27:37;4.73;;;1.13;;
16326;SDS011;34812;49.846;9.610;2023-12-22T00:32:39;6.07;;;1.47;;
16326;SDS011;34812;49.846;9.610;2023-12-22T00:37:43;2.20;;;1.40;;
16326;SDS011;34812;49.846;9.610;2023-12-22T00:42:45;1.03;;;0.90;;
16326;SDS011;34812;49.846;9.610;2023-12-22T00:47:47;0.83;;;0.83;;
16326;SDS011;34812;49.846;9.610;2023-12-22T00:52:50;0.97;;;0.97;;
16326;SDS011;34812;49.846;9.610;2023-12-22T00:57:52;1.50;;;0.90;;
16326;SDS011;34812;49.846;9.610;2023-12-22T01:02:54;0.80;;;0.80;;
16326;SDS011;34812;49.846;9.610;2023-12-22T01:07:58;0.83;;;0.83;;
16326;SDS011;34812;49.846;9.610;2023-12-22T01:13:00;1.20;;;1.10;;
16326;SDS011;34812;49.846;9.610;2023-12-22T01:18:03;0.70;;;0.70;;
16326;SDS011;34812;49.846;9.610;2023-12-22T01:23:07;0.77;;;0.77;;
16326;SDS011;34812;49.846;9.610;2023-12-22T01:28:09;0.80;;;0.80;;
16326;SDS011;34812;49.846;9.610;2023-12-22T01:33:11;2.00;;;0.80;;
16326;SDS011;34812;49.846;9.610;2023-12-22T01:38:15;0.90;;;0.90;;
16326;SDS011;34812;49.846;9.610;2023-12-22T01:43:17;2.03;;;1.00;;
16326;SDS011;34812;49.846;9.610;2023-12-22T01:48:21;1.53;;;0.93;;
16326;SDS011;34812;49.846;9.610;2023-12-22T01:53:25;2.67;;;1.50;;
16326;SDS011;34812;49.846;9.610;2023-12-22T01:58:28;1.00;;;1.00;;
16326;SDS011;34812;49.846;9.610;2023-12-22T02:03:38;0.83;;;0.83;;
16326;SDS011;34812;49.846;9.610;2023-12-22T02:08:42;0.80;;;0.80;;
16326;SDS011;34812;49.846;9.610;2023-12-22T02:13:45;0.77;;;0.77;;
16326;SDS011;34812;49.846;9.610;2023-12-22T02:18:48;0.80;;;0.80;;
16326;SDS011;34812;49.846;9.610;2023-12-22T02:23:53;1.10;;;1.10;;
16326;SDS011;34812;49.846;9.610;2023-12-22T02:28:55;1.30;;;0.70;;
16326;SDS011;34812;49.846;9.610;2023-12-22T02:33:59;3.23;;;1.10;;
16326;SDS011;34812;49.846;9.610;2023-12-22T02:39:03;1.00;;;1.00;;
16326;SDS011;34812;49.846;9.610;2023-12-22T02:44:06;1.20;;;1.10;;
16326;SDS011;34812;49.846;9.610;2023-12-22T02:49:08;0.87;;;0.80;;
16326;SDS011;34812;49.846;9.610;2023-12-22T02:54:12;1.30;;;1.20;;
16326;SDS011;34812;49.846;9.610;2023-12-22T02:59:14;2.20;;;1.10;;
16326;SDS011;34812;49.846;9.610;2023-12-22T03:04:16;1.07;;;1.07;;
16326;SDS011;34812;49.846;9.610;2023-12-22T03:09:19;1.03;;;0.93;;
16326;SDS011;34812;49.846;9.610;2023-12-22T03:14:22;0.80;;;0.80;;
16326;SDS011;34812;49.846;9.610;2023-12-22T03:19:24;1.17;;;1.00;;
16326;SDS011;34812;49.846;9.610;2023-12-22T03:24:27;0.90;;;0.90;;
16326;SDS011;34812;49.846;9.610;2023-12-22T03:29:29;1.10;;;1.00;;
16326;SDS011;34812;49.846;9.610;2023-12-22T03:34:31;0.90;;;0.90;;
16326;SDS011;34812;49.846;9.610;2023-12-22T03:39:35;1.70;;;1.50;;
16326;SDS011;34812;49.846;9.610;2023-12-22T03:44:37;2.10;;;1.77;;
16326;SDS011;34812;49.846;9.610;2023-12-22T03:49:39;0.90;;;0.90;;
16326;SDS011;34812;49.846;9.610;2023-12-22T03:54:42;0.90;;;0.90;;
16326;SDS011;34812;49.846;9.610;2023-12-22T03:59:45;1.70;;;1.33;;
16326;SDS011;34812;49.846;9.610;2023-12-22T04:04:47;1.00;;;1.00;;
16326;SDS011;34812;49.846;9.610;2023-12-22T04:09:50;1.67;;;1.57;;
16326;SDS011;34812;49.846;9.610;2023-12-22T04:14:52;0.90;;;0.90;;
16326;SDS011;34812;49.846;9.610;2023-12-22T04:19:54;2.50;;;1.03;;
16326;SDS011;34812;49.846;9.610;2023-12-22T04:24:58;4.90;;;1.43;;
16326;SDS011;34812;49.846;9.610;2023-12-22T04:30:00;0.97;;;0.97;;
16326;SDS011;34812;49.846;9.610;2023-12-22T04:35:02;0.70;;;0.70;;
16326;SDS011;34812;49.846;9.610;2023-12-22T04:40:07;3.40;;;1.20;;
16326;SDS011;34812;49.846;9.610;2023-12-22T04:45:09;1.43;;;1.33;;
16326;SDS011;34812;49.846;9.610;2023-12-22T04:50:11;1.07;;;1.07;;
16326;SDS011;34812;49.846;9.610;2023-12-22T04:55:15;4.77;;;1.30;;
16326;SDS011;34812;49.846;9.610;2023-12-22T05:00:18;3.77;;;1.00;;
16326;SDS011;34812;49.846;9.610;2023-12-22T05:05:20;1.37;;;1.20;;
16326;SDS011;34812;49.846;9.610;2023-12-22T05:10:23;6.13;;;1.23;;
16326;SDS011;34812;49.846;9.610;2023-12-22T05:15:25;0.97;;;0.97;;
16326;SDS011;34812;49.846;9.610;2023-12-22T05:20:28;2.70;;;1.50;;
16326;SDS011;34812;49.846;9.610;2023-12-22T05:25:31;0.97;;;0.97;;
16326;SDS011;34812;49.846;9.610;2023-12-22T05:30:33;0.90;;;0.90;;
16326;SDS011;34812;49.846;9.610;2023-12-22T05:35:35;0.83;;;0.83;;
16326;SDS011;34812;49.846;9.610;2023-12-22T05:40:39;0.70;;;0.70;;
16326;SDS011;34812;49.846;9.610;2023-12-22T05:45:41;2.57;;;1.77;;
16326;SDS011;34812;49.846;9.610;2023-12-22T05:50:43;1.50;;;1.03;;
16326;SDS011;34812;49.846;9.610;2023-12-22T05:55:47;2.40;;;1.00;;
16326;SDS011;34812;49.846;9.610;2023-12-22T06:00:49;2.37;;;1.50;;
16326;SDS011;34812;49.846;9.610;2023-12-22T06:05:51;1.30;;;1.20;;
16326;SDS011;34812;49.846;9.610;2023-12-22T06:10:55;1.77;;;1.30;;
16326;SDS011;34812;49.846;9.610;2023-12-22T06:15:57;1.23;;;1.20;;
16326;SDS011;34812;49.846;9.610;2023-12-22T06:20:59;0.87;;;0.87;;
16326;SDS011;34812;49.846;9.610;2023-12-22T06:26:03;6.33;;;1.37;;
16326;SDS011;34812;49.846;9.610;2023-12-22T06:31:15;2.10;;;1.20;;
16326;SDS011;34812;49.846;9.610;2023-12-22T06:36:19;2.67;;;1.03;;
16326;SDS011;34812;49.846;9.610;2023-12-22T06:41:23;1.00;;;1.00;;
16326;SDS011;34812;49.846;9.610;2023-12-22T06:46:25;1.20;;;1.10;;
16326;SDS011;34812;49.846;9.610;2023-12-22T06:51:30;1.00;;;0.97;;
16326;SDS011;34812;49.846;9.610;2023-12-22T06:56:36;5.80;;;1.73;;
16326;SDS011;34812;49.846;9.610;2023-12-22T07:01:39;1.33;;;1.27;;
16326;SDS011;34812;49.846;9.610;2023-12-22T07:06:41;1.50;;;1.40;;
16326;SDS011;34812;49.846;9.610;2023-12-22T07:11:47;5.18;;;1.23;;
16326;SDS011;34812;49.846;9.610;2023-12-22T07:16:50;1.40;;;1.30;;
16326;SDS011;34812;49.846;9.610;2023-12-22T07:21:52;2.50;;;1.20;;
16326;SDS011;34812;49.846;9.610;2023-12-22T07:26:55;2.33;;;1.07;;
16326;SDS011;34812;49.846;9.610;2023-12-22T07:31:57;1.33;;;1.10;;
16326;SDS011;34812;49.846;9.610;2023-12-22T07:37:00;5.40;;;1.33;;
16326;SDS011;34812;49.846;9.610;2023-12-22T07:42:03;2.63;;;1.30;;
16326;SDS011;34812;49.846;9.610;2023-12-22T07:47:06;3.23;;;1.37;;
16326;SDS011;34812;49.846;9.610;2023-12-22T07:52:09;1.10;;;1.00;;
16326;SDS011;34812;49.846;9.610;2023-12-22T07:57:13;8.53;;;2.27;;
16326;SDS011;34812;49.846;9.610;2023-12-22T08:02:15;0.80;;;0.80;;
16326;SDS011;34812;49.846;9.610;2023-12-22T08:07:17;4.33;;;1.20;;
16326;SDS011;34812;49.846;9.610;2023-12-22T08:12:21;2.00;;;0.80;;
16326;SDS011;34812;49.846;9.610;2023-12-22T08:17:23;1.00;;;1.00;;
16326;SDS011;34812;49.846;9.610;2023-12-22T08:22:25;5.10;;;1.27;;
16326;SDS011;34812;49.846;9.610;2023-12-22T08:27:29;2.03;;;1.30;;
16326;SDS011;34812;49.846;9.610;2023-12-22T08:32:31;3.43;;;1.63;;
16326;SDS011;34812;49.846;9.610;2023-12-22T08:37:33;5.07;;;1.97;;
16326;SDS011;34812;49.846;9.610;2023-12-22T08:42:36;2.03;;;1.50;;
16326;SDS011;34812;49.846;9.610;2023-12-22T08:47:39;5.57;;;1.40;;
16326;SDS011;34812;49.846;9.610;2023-12-22T08:52:41;4.20;;;1.50;;
16326;SDS011;34812;49.846;9.610;2023-12-22T08:57:45;3.33;;;2.10;;
16326;SDS011;34812;49.846;9.610;2023-12-22T09:02:47;5.17;;;1.80;;
16326;SDS011;34812;49.846;9.610;2023-12-22T09:07:49;8.13;;;2.10;;
16326;SDS011;34812;49.846;9.610;2023-12-22T09:12:52;1.33;;;1.10;;
16326;SDS011;34812;49.846;9.610;2023-12-22T09:17:54;10.00;;;1.63;;
16326;SDS011;34812;49.846;9.610;2023-12-22T09:22:57;5.23;;;1.53;;
16326;SDS011;34812;49.846;9.610;2023-12-22T09:28:00;1.80;;;1.33;;
16326;SDS011;34812;49.846;9.610;2023-12-22T09:33:02;2.17;;;1.37;;
16326;SDS011;34812;49.846;9.610;2023-12-22T09:38:05;4.83;;;1.30;;
16326;SDS011;34812;49.846;9.610;2023-12-22T09:43:09;3.13;;;1.20;;
16326;SDS011;34812;49.846;9.610;2023-12-22T09:48:12;0.90;;;0.90;;
16326;SDS011;34812;49.846;9.610;2023-12-22T09:53:17;1.20;;;1.03;;
16326;SDS011;34812;49.846;9.610;2023-12-22T09:58:21;3.37;;;0.90;;
16326;SDS011;34812;49.846;9.610;2023-12-22T10:03:23;0.70;;;0.70;;
16326;SDS011;34812;49.846;9.610;2023-12-22T10:08:26;2.07;;;0.50;;
16326;SDS011;34812;49.846;9.610;2023-12-22T10:13:30;0.70;;;0.70;;
16326;SDS011;34812;49.846;9.610;2023-12-22T10:18:33;0.80;;;0.80;;
16326;SDS011;34812;49.846;9.610;2023-12-22T10:23:35;1.70;;;1.10;;
16326;SDS011;34812;49.846;9.610;2023-12-22T10:28:38;1.53;;;1.13;;
16326;SDS011;34812;49.846;9.610;2023-12-22T10:33:42;0.60;;;0.60;;
16326;SDS011;34812;49.846;9.610;2023-12-22T10:38:44;0.83;;;0.83;;
16326;SDS011;34812;49.846;9.610;2023-12-22T10:43:48;2.20;;;0.93;;
16326;SDS011;34812;49.846;9.610;2023-12-22T10:48:52;0.90;;;0.90;;
16326;SDS011;34812;49.846;9.610;2023-12-22T10:53:54;8.40;;;1.20;;
16326;SDS011;34812;49.846;9.610;2023-12-22T10:58:58;1.30;;;1.20;;
16326;SDS011;34812;49.846;9.610;2023-12-22T11:04:01;2.60;;;1.47;;
16326;SDS011;34812;49.846;9.610;2023-12-22T11:09:06;4.30;;;1.50;;
16326;SDS011;34812;49.846;9.610;2023-12-22T11:14:10;3.00;;;1.40;;
16326;SDS011;34812;49.846;9.610;2023-12-22T11:19:13;1.60;;;1.20;;
16326;SDS011;34812;49.846;9.610;2023-12-22T11:24:15;4.90;;;1.57;;
16326;SDS011;34812;49.846;9.610;2023-12-22T11:29:19;4.97;;;1.83;;
16326;SDS011;34812;49.846;9.610;2023-12-22T11:34:23;5.80;;;1.30;;
16326;SDS011;34812;49.846;9.610;2023-12-22T11:39:25;3.47;;;1.80;;
16326;SDS011;34812;49.846;9.610;2023-12-22T11:44:29;4.30;;;1.53;;
16326;SDS011;34812;49.846;9.610;2023-12-22T11:49:32;7.57;;;1.67;;
16326;SDS011;34812;49.846;9.610;2023-12-22T11:54:43;4.63;;;1.40;;
16326;SDS011;34812;49.846;9.610;2023-12-22T11:59:48;2.50;;;1.73;;
16326;SDS011;34812;49.846;9.610;2023-12-22T12:04:51;9.43;;;1.80;;
16326;SDS011;34812;49.846;9.610;2023-12-22T12:09:53;4.20;;;1.50;;
16326;SDS011;34812;49.846;9.610;2023-12-22T12:14:57;4.47;;;1.73;;
16326;SDS011;34812;49.846;9.610;2023-12-22T12:20:00;6.40;;;1.87;;
16326;SDS011;34812;49.846;9.610;2023-12-22T12:25:04;5.43;;;1.40;;
16326;SDS011;34812;49.846;9.610;2023-12-22T12:30:13;3.57;;;1.83;;
16326;SDS011;34812;49.846;9.610;2023-12-22T12:35:16;3.30;;;1.40;;
16326;SDS011;34812;49.846;9.610;2023-12-22T12:40:18;7.50;;;2.10;;
16326;SDS011;34812;49.846;9.610;2023-12-22T12:45:26;14.43;;;2.60;;
16326;SDS011;34812;49.846;9.610;2023-12-22T12:50:29;3.50;;;1.43;;
16326;SDS011;34812;49.846;9.610;2023-12-22T12:55:31;1.43;;;1.13;;
16326;SDS011;34812;49.846;9.610;2023-12-22T13:00:35;4.60;;;1.00;;
16326;SDS011;34812;49.846;9.610;2023-12-22T13:05:37;5.30;;;1.23;;
16326;SDS011;34812;49.846;9.610;2023-12-22T13:10:39;5.53;;;1.40;;
16326;SDS011;34812;49.846;9.610;2023-12-22T13:15:43;2.00;;;1.27;;
16326;SDS011;34812;49.846;9.610;2023-12-22T13:20:45;1.73;;;1.10;;
16326;SDS011;34812;49.846;9.610;2023-12-22T13:25:47;1.20;;;0.83;;
16326;SDS011;34812;49.846;9.610;2023-12-22T13:30:51;1.23;;;0.90;;
16326;SDS011;34812;49.846;9.610;2023-12-22T13:35:53;1.07;;;1.00;;
16326;SDS011;34812;49.846;9.610;2023-12-22T13:40:58;1.80;;;1.30;;
16326;SDS011;34812;49.846;9.610;2023-12-22T13:46:01;3.00;;;1.20;;
16326;SDS011;34812;49.846;9.610;2023-12-22T13:51:03;0.83;;;0.73;;
16326;SDS011;34812;49.846;9.610;2023-12-22T13:56:06;0.93;;;0.70;;
16326;SDS011;34812;49.846;9.610;2023-12-22T14:01:13;0.60;;;0.60;;
16326;SDS011;34812;49.846;9.610;2023-12-22T14:06:16;1.63;;;1.50;;
16326;SDS011;34812;49.846;9.610;2023-12-22T14:11:18;2.53;;;0.97;;
16326;SDS011;34812;49.846;9.610;2023-12-22T14:16:22;3.20;;;0.60;;
16326;SDS011;34812;49.846;9.610;2023-12-22T14:21:24;0.60;;;0.60;;
16326;SDS011;34812;49.846;9.610;2023-12-22T14:26:26;3.33;;;0.80;;
16326;SDS011;34812;49.846;9.610;2023-12-22T14:31:29;0.63;;;0.63;;
16326;SDS011;34812;49.846;9.610;2023-12-22T14:36:32;0.87;;;0.83;;
16326;SDS011;34812;49.846;9.610;2023-12-22T14:41:34;0.63;;;0.63;;
16326;SDS011;34812;49.846;9.610;2023-12-22T14:46:40;0.93;;;0.60;;
16326;SDS011;34812;49.846;9.610;2023-12-22T14:51:42;2.13;;;0.90;;
16326;SDS011;34812;49.846;9.610;2023-12-22T14:56:46;0.90;;;0.83;;
16326;SDS011;34812;49.846;9.610;2023-12-22T15:01:50;0.50;;;0.50;;
16326;SDS011;34812;49.846;9.610;2023-12-22T15:06:53;0.73;;;0.73;;
16326;SDS011;34812;49.846;9.610;2023-12-22T15:11:55;0.70;;;0.70;;
16326;SDS011;34812;49.846;9.610;2023-12-22T15:16:58;0.70;;;0.70;;
16326;SDS011;34812;49.846;9.610;2023-12-22T15:22:00;1.10;;;1.00;;
16326;SDS011;34812;49.846;9.610;2023-12-22T15:27:03;1.03;;;0.73;;
16326;SDS011;34812;49.846;9.610;2023-12-22T15:32:06;3.23;;;1.03;;
16326;SDS011;34812;49.846;9.610;2023-12-22T15:37:08;1.30;;;1.20;;
16326;SDS011;34812;49.846;9.610;2023-12-22T15:42:10;0.80;;;0.80;;
16326;SDS011;34812;49.846;9.610;2023-12-22T15:47:14;1.67;;;0.80;;
16326;SDS011;34812;49.846;9.610;2023-12-22T15:52:16;0.90;;;0.90;;
16326;SDS011;34812;49.846;9.610;2023-12-22T15:57:19;0.70;;;0.70;;
16326;SDS011;34812;49.846;9.610;2023-12-22T16:02:22;1.00;;;0.90;;
16326;SDS011;34812;49.846;9.610;2023-12-22T16:07:25;0.70;;;0.70;;
16326;SDS011;34812;49.846;9.610;2023-12-22T16:12:27;1.57;;;0.90;;
16326;SDS011;34812;49.846;9.610;2023-12-22T16:17:30;1.60;;;0.90;;
16326;SDS011;34812;49.846;9.610;2023-12-22T16:22:32;0.87;;;0.80;;
16326;SDS011;34812;49.846;9.610;2023-12-22T16:27:34;1.10;;;1.00;;
16326;SDS011;34812;49.846;9.610;2023-12-22T16:32:38;0.70;;;0.70;;
16326;SDS011;34812;49.846;9.610;2023-12-22T16:37:42;1.03;;;0.80;;
16326;SDS011;34812;49.846;9.610;2023-12-22T16:42:45;0.60;;;0.60;;
16326;SDS011;34812;49.846;9.610;2023-12-22T16:47:48;4.83;;;0.67;;
16326;SDS011;34812;49.846;9.610;2023-12-22T16:52:51;0.70;;;0.70;;
16326;SDS011;34812;49.846;9.610;2023-12-22T16:57:53;3.90;;;0.70;;
16326;SDS011;34812;49.846;9.610;2023-12-22T17:02:57;0.70;;;0.60;;
16326;SDS011;34812;49.846;9.610;2023-12-22T17:07:59;0.80;;;0.80;;
16326;SDS011;34812;49.846;9.610;2023-12-22T17:13:01;0.90;;;0.83;;
16326;SDS011;34812;49.846;9.610;2023-12-22T17:18:05;1.33;;;0.90;;
16326;SDS011;34812;49.846;9.610;2023-12-22T17:23:07;0.70;;;0.70;;
16326;SDS011;34812;49.846;9.610;2023-12-22T17:28:09;0.90;;;0.90;;
16326;SDS011;34812;49.846;9.610;2023-12-22T17:33:12;3.37;;;0.80;;
16326;SDS011;34812;49.846;9.610;2023-12-22T17:38:14;0.67;;;0.67;;
16326;SDS011;34812;49.846;9.610;2023-12-22T17:43:17;1.07;;;0.97;;
16326;SDS011;34812;49.846;9.610;2023-12-22T17:48:21;0.80;;;0.80;;
16326;SDS011;34812;49.846;9.610;2023-12-22T17:53:23;0.80;;;0.80;;
16326;SDS011;34812;49.846;9.610;2023-12-22T17:58:26;0.80;;;0.80;;
16326;SDS011;34812;49.846;9.610;2023-12-22T18:03:29;0.90;;;0.90;;
16326;SDS011;34812;49.846;9.610;2023-12-22T18:08:31;0.60;;;0.60;;
16326;SDS011;34812;49.846;9.610;2023-12-22T18:13:34;0.50;;;0.50;;
16326;SDS011;34812;49.846;9.610;2023-12-22T18:18:37;0.80;;;0.80;;
16326;SDS011;34812;49.846;9.610;2023-12-22T18:23:39;0.80;;;0.80;;
16326;SDS011;34812;49.846;9.610;2023-12-22T18:28:41;0.80;;;0.80;;
16326;SDS011;34812;49.846;9.610;2023-12-22T18:33:45;0.80;;;0.80;;
16326;SDS011;34812;49.846;9.610;2023-12-22T18:38:48;0.50;;;0.50;;
16326;SDS011;34812;49.846;9.610;2023-12-22T18:43:50;0.63;;;0.63;;
16326;SDS011;34812;49.846;9.610;2023-12-22T18:48:53;1.37;;;0.73;;
16326;SDS011;34812;49.846;9.610;2023-12-22T18:53:55;0.60;;;0.60;;
16326;SDS011;34812;49.846;9.610;2023-12-22T18:58:58;0.57;;;0.57;;
16326;SDS011;34812;49.846;9.610;2023-12-22T19:04:01;0.60;;;0.60;;
16326;SDS011;34812;49.846;9.610;2023-12-22T19:09:03;0.87;;;0.60;;
16326;SDS011;34812;49.846;9.610;2023-12-22T19:14:05;0.50;;;0.50;;
16326;SDS011;34812;49.846;9.610;2023-12-22T19:19:09;0.50;;;0.50;;
16326;SDS011;34812;49.846;9.610;2023-12-22T19:24:11;0.40;;;0.40;;
16326;SDS011;34812;49.846;9.610;2023-12-22T19:29:13;0.50;;;0.50;;
16326;SDS011;34812;49.846;9.610;2023-12-22T19:34:17;2.50;;;0.60;;
16326;SDS011;34812;49.846;9.610;2023-12-22T19:39:19;0.60;;;0.60;;
16326;SDS011;34812;49.846;9.610;2023-12-22T19:44:21;0.53;;;0.50;;
16326;SDS011;34812;49.846;9.610;2023-12-22T19:49:25;0.63;;;0.63;;
16326;SDS011;34812;49.846;9.610;2023-12-22T19:54:27;0.90;;;0.90;;
16326;SDS011;34812;49.846;9.610;2023-12-22T19:59:29;0.80;;;0.80;;
16326;SDS011;34812;49.846;9.610;2023-12-22T20:04:33;0.97;;;0.80;;
16326;SDS011;34812;49.846;9.610;2023-12-22T20:09:36;0.63;;;0.63;;
16326;SDS011;34812;49.846;9.610;2023-12-22T20:14:39;0.67;;;0.60;;
16326;SDS011;34812;49.846;9.610;2023-12-22T20:19:43;0.93;;;0.93;;
16326;SDS011;34812;49.846;9.610;2023-12-22T20:24:46;1.70;;;0.97;;
16326;SDS011;34812;49.846;9.610;2023-12-22T20:29:48;0.90;;;0.90;;
16326;SDS011;34812;49.846;9.610;2023-12-22T20:34:51;0.80;;;0.80;;
16326;SDS011;34812;49.846;9.610;2023-12-22T20:39:53;0.80;;;0.70;;
16326;SDS011;34812;49.846;9.610;2023-12-22T20:44:56;1.07;;;0.97;;
16326;SDS011;34812;49.846;9.610;2023-12-22T20:50:00;1.67;;;1.30;;
16326;SDS011;34812;49.846;9.610;2023-12-22T20:55:03;1.10;;;1.00;;
16326;SDS011;34812;49.846;9.610;2023-12-22T21:00:06;1.00;;;1.00;;
16326;SDS011;34812;49.846;9.610;2023-12-22T21:05:10;0.80;;;0.80;;
16326;SDS011;34812;49.846;9.610;2023-12-22T21:10:12;1.40;;;1.03;;
16326;SDS011;34812;49.846;9.610;2023-12-22T21:15:14;1.37;;;0.63;;
16326;SDS011;34812;49.846;9.610;2023-12-22T21:20:18;1.07;;;1.07;;
16326;SDS011;34812;49.846;9.610;2023-12-22T21:25:20;1.60;;;0.83;;
16326;SDS011;34812;49.846;9.610;2023-12-22T21:30:22;1.27;;;1.17;;
16326;SDS011;34812;49.846;9.610;2023-12-22T21:35:28;0.63;;;0.63;;
16326;SDS011;34812;49.846;9.610;2023-12-22T21:40:30;0.70;;;0.70;;
16326;SDS011;34812;49.846;9.610;2023-12-22T21:45:32;1.73;;;0.83;;
16326;SDS011;34812;49.846;9.610;2023-12-22T21:50:36;1.10;;;1.10;;
16326;SDS011;34812;49.846;9.610;2023-12-22T21:55:38;0.93;;;0.93;;
16326;SDS011;34812;49.846;9.610;2023-12-22T22:00:41;1.07;;;1.00;;
16326;SDS011;34812;49.846;9.610;2023-12-22T22:05:44;1.10;;;1.00;;
16326;SDS011;34812;49.846;9.610;2023-12-22T22:10:47;0.97;;;0.87;;
16326;SDS011;34812;49.846;9.610;2023-12-22T22:15:49;4.13;;;1.27;;
16326;SDS011;34812;49.846;9.610;2023-12-22T22:20:52;3.17;;;0.80;;
16326;SDS011;34812;49.846;9.610;2023-12-22T22:25:54;0.60;;;0.60;;
16326;SDS011;34812;49.846;9.610;2023-12-22T22:30:56;0.60;;;0.60;;
16326;SDS011;34812;49.846;9.610;2023-12-22T22:36:00;0.70;;;0.70;;
16326;SDS011;34812;49.846;9.610;2023-12-22T22:41:04;0.70;;;0.70;;
16326;SDS011;34812;49.846;9.610;2023-12-22T22:46:09;2.00;;;1.10;;
16326;SDS011;34812;49.846;9.610;2023-12-22T22:51:20;1.47;;;1.00;;
16326;SDS011;34812;49.846;9.610;2023-12-22T22:56:22;0.93;;;0.93;;
16326;SDS011;34812;49.846;9.610;2023-12-22T23:01:25;1.23;;;1.00;;
16326;SDS011;34812;49.846;9.610;2023-12-22T23:06:28;2.90;;;0.90;;
16326;SDS011;34812;49.846;9.610;2023-12-22T23:11:30;0.87;;;0.87;;
16326;SDS011;34812;49.846;9.610;2023-12-22T23:16:32;0.70;;;0.70;;
16326;SDS011;34812;49.846;9.610;2023-12-22T23:21:36;0.80;;;0.80;;
16326;SDS011;34812;49.846;9.610;2023-12-22T23:26:39;1.17;;;1.00;;
16326;SDS011;34812;49.846;9.610;2023-12-22T23:31:41;0.80;;;0.80;;
16326;SDS011;34812;49.846;9.610;2023-12-22T23:36:45;0.97;;;0.90;;
16326;SDS011;34812;49.846;9.610;2023-12-22T23:41:47;1.17;;;1.10;;
16326;SDS011;34812;49.846;9.610;2023-12-22T23:46:49;1.90;;;1.00;;
16326;SDS011;34812;49.846;9.610;2023-12-22T23:51:52;1.00;;;1.00;;
16326;SDS011;34812;49.846;9.610;2023-12-22T23:56:55;2.03;;;1.00;;
